sensor_id;sensor_type;location;lat;lon;timestamp;P1;durP1;ratioP1;P2;durP2;ratioP2
51491;SDS011;37569;50.548;8.778;2023-08-30T00:01:54;8;;;6.1;;
51491;SDS011;37569;50.548;8.778;2023-08-30T00:06:55;7.8;;;6.6;;
51491;SDS011;37569;50.548;8.778;2023-08-30T00:11:55;9;;;6.3;;
51491;SDS011;37569;50.548;8.778;2023-08-30T00:16:56;6.3;;;5.7;;
51491;SDS011;37569;50.548;8.778;2023-08-30T00:21:56;6.5;;;5.8;;
51491;SDS011;37569;50.548;8.778;2023-08-30T00:26:57;6.7;;;6;;
51491;SDS011;37569;50.548;8.778;2023-08-30T00:31:57;7.7;;;6.5;;
51491;SDS011;37569;50.548;8.778;2023-08-30T00:36:58;6.9;;;6.2;;
51491;SDS011;37569;50.548;8.778;2023-08-30T00:41:59;10.9;;;6.4;;
51491;SDS011;37569;50.548;8.778;2023-08-30T00:46:59;7;;;6.3;;
51491;SDS011;37569;50.548;8.778;2023-08-30T00:52:01;14.1;;;7.8;;
51491;SDS011;37569;50.548;8.778;2023-08-30T00:57:00;10.9;;;8.1;;
51491;SDS011;37569;50.548;8.778;2023-08-30T01:02:01;11.4;;;7.8;;
51491;SDS011;37569;50.548;8.778;2023-08-30T01:07:01;9.8;;;7.6;;
51491;SDS011;37569;50.548;8.778;2023-08-30T01:12:04;9;;;7.3;;
51491;SDS011;37569;50.548;8.778;2023-08-30T01:17:03;7.1;;;6.4;;
51491;SDS011;37569;50.548;8.778;2023-08-30T01:22:05;9.7;;;7;;
51491;SDS011;37569;50.548;8.778;2023-08-30T01:27:07;7.9;;;6.9;;
51491;SDS011;37569;50.548;8.778;2023-08-30T01:32:05;9.8;;;7.8;;
51491;SDS011;37569;50.548;8.778;2023-08-30T01:37:05;10.6;;;7.1;;
51491;SDS011;37569;50.548;8.778;2023-08-30T01:42:06;8.4;;;7.1;;
51491;SDS011;37569;50.548;8.778;2023-08-30T01:47:06;10.3;;;7.3;;
51491;SDS011;37569;50.548;8.778;2023-08-30T01:52:07;12.8;;;9;;
51491;SDS011;37569;50.548;8.778;2023-08-30T01:57:07;23.3;;;11.1;;
51491;SDS011;37569;50.548;8.778;2023-08-30T02:02:08;22.8;;;9.8;;
51491;SDS011;37569;50.548;8.778;2023-08-30T02:07:10;15.2;;;10;;
51491;SDS011;37569;50.548;8.778;2023-08-30T02:12:12;15.2;;;10.6;;
51491;SDS011;37569;50.548;8.778;2023-08-30T02:17:10;17;;;10.9;;
51491;SDS011;37569;50.548;8.778;2023-08-30T02:22:10;20.9;;;10.6;;
51491;SDS011;37569;50.548;8.778;2023-08-30T02:27:11;17.3;;;10.7;;
51491;SDS011;37569;50.548;8.778;2023-08-30T02:32:11;13.5;;;10.6;;
51491;SDS011;37569;50.548;8.778;2023-08-30T02:37:12;14.3;;;9.9;;
51491;SDS011;37569;50.548;8.778;2023-08-30T02:42:12;14.2;;;10.4;;
51491;SDS011;37569;50.548;8.778;2023-08-30T02:47:13;15.8;;;11.2;;
51491;SDS011;37569;50.548;8.778;2023-08-30T02:52:14;15.8;;;11.4;;
51491;SDS011;37569;50.548;8.778;2023-08-30T02:57:14;15.7;;;10.5;;
51491;SDS011;37569;50.548;8.778;2023-08-30T03:02:15;13.5;;;10;;
51491;SDS011;37569;50.548;8.778;2023-08-30T03:07:15;14.8;;;10.4;;
51491;SDS011;37569;50.548;8.778;2023-08-30T03:12:16;13.5;;;9.8;;
51491;SDS011;37569;50.548;8.778;2023-08-30T03:17:16;12.8;;;9.4;;
51491;SDS011;37569;50.548;8.778;2023-08-30T03:22:17;13.7;;;10.8;;
51491;SDS011;37569;50.548;8.778;2023-08-30T03:27:17;14.4;;;10.7;;
51491;SDS011;37569;50.548;8.778;2023-08-30T03:32:19;13.8;;;10.5;;
51491;SDS011;37569;50.548;8.778;2023-08-30T03:37:19;20.5;;;10.2;;
51491;SDS011;37569;50.548;8.778;2023-08-30T03:42:19;37.2;;;10.1;;
51491;SDS011;37569;50.548;8.778;2023-08-30T03:47:20;52.2;;;11.1;;
51491;SDS011;37569;50.548;8.778;2023-08-30T03:52:20;54.6;;;11.6;;
51491;SDS011;37569;50.548;8.778;2023-08-30T03:57:21;54.1;;;12.1;;
51491;SDS011;37569;50.548;8.778;2023-08-30T04:02:22;33;;;11.6;;
51491;SDS011;37569;50.548;8.778;2023-08-30T04:07:22;80.1;;;13.2;;
51491;SDS011;37569;50.548;8.778;2023-08-30T04:12:23;29.3;;;11.5;;
51491;SDS011;37569;50.548;8.778;2023-08-30T04:17:23;17.1;;;11.2;;
51491;SDS011;37569;50.548;8.778;2023-08-30T04:22:24;16.3;;;11.3;;
51491;SDS011;37569;50.548;8.778;2023-08-30T04:27:26;15.1;;;11.6;;
51491;SDS011;37569;50.548;8.778;2023-08-30T04:32:30;17;;;12.2;;
51491;SDS011;37569;50.548;8.778;2023-08-30T04:37:29;17;;;11.8;;
51491;SDS011;37569;50.548;8.778;2023-08-30T04:42:26;17.6;;;12.5;;
51491;SDS011;37569;50.548;8.778;2023-08-30T04:47:39;19.3;;;12.6;;
51491;SDS011;37569;50.548;8.778;2023-08-30T04:52:27;17.2;;;12.1;;
51491;SDS011;37569;50.548;8.778;2023-08-30T04:57:33;17.4;;;13.1;;
51491;SDS011;37569;50.548;8.778;2023-08-30T05:02:28;18;;;12.5;;
51491;SDS011;37569;50.548;8.778;2023-08-30T05:07:29;17;;;12.3;;
51491;SDS011;37569;50.548;8.778;2023-08-30T05:12:30;20.5;;;14.2;;
51491;SDS011;37569;50.548;8.778;2023-08-30T05:17:30;23.1;;;16.5;;
51491;SDS011;37569;50.548;8.778;2023-08-30T05:22:31;22.1;;;15.2;;
51491;SDS011;37569;50.548;8.778;2023-08-30T05:27:31;45.8;;;21.2;;
51491;SDS011;37569;50.548;8.778;2023-08-30T05:32:32;25.5;;;17.7;;
51491;SDS011;37569;50.548;8.778;2023-08-30T05:37:33;37.4;;;21.2;;
51491;SDS011;37569;50.548;8.778;2023-08-30T05:42:33;29.1;;;19.1;;
51491;SDS011;37569;50.548;8.778;2023-08-30T05:47:34;25.4;;;18.8;;
51491;SDS011;37569;50.548;8.778;2023-08-30T05:52:34;29.4;;;20.1;;
51491;SDS011;37569;50.548;8.778;2023-08-30T05:57:35;29.1;;;19.4;;
51491;SDS011;37569;50.548;8.778;2023-08-30T06:02:36;36.4;;;18;;
51491;SDS011;37569;50.548;8.778;2023-08-30T06:07:36;23;;;16.9;;
51491;SDS011;37569;50.548;8.778;2023-08-30T06:12:37;19.3;;;14.5;;
51491;SDS011;37569;50.548;8.778;2023-08-30T06:17:38;21;;;15;;
51491;SDS011;37569;50.548;8.778;2023-08-30T06:22:38;19.8;;;14.2;;
51491;SDS011;37569;50.548;8.778;2023-08-30T06:27:40;16.6;;;14.8;;
51491;SDS011;37569;50.548;8.778;2023-08-30T06:32:39;19.9;;;16;;
51491;SDS011;37569;50.548;8.778;2023-08-30T06:37:40;20.8;;;17.2;;
51491;SDS011;37569;50.548;8.778;2023-08-30T06:42:41;25.9;;;17.4;;
51491;SDS011;37569;50.548;8.778;2023-08-30T06:47:51;20.6;;;16.4;;
51491;SDS011;37569;50.548;8.778;2023-08-30T06:52:42;18.9;;;16.4;;
51491;SDS011;37569;50.548;8.778;2023-08-30T06:57:47;19;;;17;;
51491;SDS011;37569;50.548;8.778;2023-08-30T07:02:52;19.6;;;17.5;;
51491;SDS011;37569;50.548;8.778;2023-08-30T07:07:44;20.8;;;18.6;;
51491;SDS011;37569;50.548;8.778;2023-08-30T07:12:45;20.8;;;18;;
51491;SDS011;37569;50.548;8.778;2023-08-30T07:17:45;19.7;;;17.6;;
51491;SDS011;37569;50.548;8.778;2023-08-30T07:22:46;19.6;;;17.5;;
51491;SDS011;37569;50.548;8.778;2023-08-30T07:27:47;22.4;;;19.8;;
51491;SDS011;37569;50.548;8.778;2023-08-30T07:32:47;20.4;;;18.3;;
51491;SDS011;37569;50.548;8.778;2023-08-30T07:37:53;21.3;;;18.6;;
51491;SDS011;37569;50.548;8.778;2023-08-30T07:42:49;19.8;;;17.6;;
51491;SDS011;37569;50.548;8.778;2023-08-30T07:47:49;19.6;;;17.6;;
51491;SDS011;37569;50.548;8.778;2023-08-30T07:52:50;19.2;;;17.2;;
51491;SDS011;37569;50.548;8.778;2023-08-30T07:57:51;19.7;;;17.6;;
51491;SDS011;37569;50.548;8.778;2023-08-30T08:02:51;19.4;;;17.4;;
51491;SDS011;37569;50.548;8.778;2023-08-30T08:07:52;19.7;;;17.6;;
51491;SDS011;37569;50.548;8.778;2023-08-30T08:12:53;19.5;;;17.5;;
51491;SDS011;37569;50.548;8.778;2023-08-30T08:17:54;19.7;;;17.7;;
51491;SDS011;37569;50.548;8.778;2023-08-30T08:22:54;19.5;;;17.4;;
51491;SDS011;37569;50.548;8.778;2023-08-30T08:27:55;18.8;;;16.8;;
51491;SDS011;37569;50.548;8.778;2023-08-30T08:32:57;17.8;;;16.1;;
51491;SDS011;37569;50.548;8.778;2023-08-30T08:37:57;18.2;;;16.3;;
51491;SDS011;37569;50.548;8.778;2023-08-30T08:42:58;17.4;;;15.6;;
51491;SDS011;37569;50.548;8.778;2023-08-30T08:47:58;16;;;14.3;;
51491;SDS011;37569;50.548;8.778;2023-08-30T08:52:59;15.1;;;13.5;;
51491;SDS011;37569;50.548;8.778;2023-08-30T08:58:00;15.6;;;13.9;;
51491;SDS011;37569;50.548;8.778;2023-08-30T09:03:01;17.7;;;15.8;;
51491;SDS011;37569;50.548;8.778;2023-08-30T09:08:02;17.5;;;15.1;;
51491;SDS011;37569;50.548;8.778;2023-08-30T09:13:03;16.4;;;14.1;;
51491;SDS011;37569;50.548;8.778;2023-08-30T09:18:04;16.6;;;14.7;;
51491;SDS011;37569;50.548;8.778;2023-08-30T09:23:04;16.7;;;14.2;;
51491;SDS011;37569;50.548;8.778;2023-08-30T09:28:05;17.1;;;14.7;;
51491;SDS011;37569;50.548;8.778;2023-08-30T09:33:06;17;;;14.7;;
51491;SDS011;37569;50.548;8.778;2023-08-30T09:38:07;16.8;;;14.9;;
51491;SDS011;37569;50.548;8.778;2023-08-30T09:43:08;15.6;;;13.4;;
51491;SDS011;37569;50.548;8.778;2023-08-30T09:48:09;14.1;;;12.7;;
51491;SDS011;37569;50.548;8.778;2023-08-30T09:53:10;13.3;;;12;;
51491;SDS011;37569;50.548;8.778;2023-08-30T09:58:11;12;;;10.8;;
51491;SDS011;37569;50.548;8.778;2023-08-30T10:03:12;12.1;;;10.9;;
51491;SDS011;37569;50.548;8.778;2023-08-30T10:08:13;11;;;9.9;;
51491;SDS011;37569;50.548;8.778;2023-08-30T10:13:13;9.8;;;8.8;;
51491;SDS011;37569;50.548;8.778;2023-08-30T10:18:15;8.3;;;7.5;;
51491;SDS011;37569;50.548;8.778;2023-08-30T10:23:15;6.7;;;6;;
51491;SDS011;37569;50.548;8.778;2023-08-30T10:28:16;6.2;;;5.6;;
51491;SDS011;37569;50.548;8.778;2023-08-30T10:33:17;6.2;;;5.6;;
51491;SDS011;37569;50.548;8.778;2023-08-30T10:38:26;6.5;;;5.1;;
51491;SDS011;37569;50.548;8.778;2023-08-30T10:43:27;5.5;;;5;;
51491;SDS011;37569;50.548;8.778;2023-08-30T10:48:20;5.6;;;4.9;;
51491;SDS011;37569;50.548;8.778;2023-08-30T10:53:28;6.7;;;5;;
51491;SDS011;37569;50.548;8.778;2023-08-30T10:58:22;5.9;;;5.3;;
51491;SDS011;37569;50.548;8.778;2023-08-30T11:03:23;5.8;;;4.7;;
51491;SDS011;37569;50.548;8.778;2023-08-30T11:08:24;5;;;3.6;;
51491;SDS011;37569;50.548;8.778;2023-08-30T11:13:26;5.1;;;3.1;;
51491;SDS011;37569;50.548;8.778;2023-08-30T11:18:26;4.2;;;3;;
51491;SDS011;37569;50.548;8.778;2023-08-30T11:23:27;4.8;;;3.7;;
51491;SDS011;37569;50.548;8.778;2023-08-30T11:28:28;4.8;;;3;;
51491;SDS011;37569;50.548;8.778;2023-08-30T11:33:29;3.8;;;3.2;;
51491;SDS011;37569;50.548;8.778;2023-08-30T11:38:29;4.6;;;3.1;;
51491;SDS011;37569;50.548;8.778;2023-08-30T11:43:30;3.8;;;2.9;;
51491;SDS011;37569;50.548;8.778;2023-08-30T11:48:31;4.3;;;3.2;;
51491;SDS011;37569;50.548;8.778;2023-08-30T11:53:32;5.3;;;3.3;;
51491;SDS011;37569;50.548;8.778;2023-08-30T11:58:33;4.2;;;3.2;;
51491;SDS011;37569;50.548;8.778;2023-08-30T12:03:34;5;;;3.1;;
51491;SDS011;37569;50.548;8.778;2023-08-30T12:08:35;4.2;;;3.3;;
51491;SDS011;37569;50.548;8.778;2023-08-30T12:13:36;4.6;;;3.5;;
51491;SDS011;37569;50.548;8.778;2023-08-30T12:18:37;3.9;;;3.6;;
51491;SDS011;37569;50.548;8.778;2023-08-30T12:23:38;4.9;;;3.5;;
51491;SDS011;37569;50.548;8.778;2023-08-30T12:28:39;4.2;;;3.4;;
51491;SDS011;37569;50.548;8.778;2023-08-30T12:33:40;4.3;;;3.8;;
51491;SDS011;37569;50.548;8.778;2023-08-30T12:38:40;3.7;;;3.1;;
51491;SDS011;37569;50.548;8.778;2023-08-30T12:43:41;3.7;;;3.3;;
51491;SDS011;37569;50.548;8.778;2023-08-30T12:48:42;6;;;3.1;;
51491;SDS011;37569;50.548;8.778;2023-08-30T12:53:43;3.8;;;3;;
51491;SDS011;37569;50.548;8.778;2023-08-30T12:58:44;4.6;;;3;;
51491;SDS011;37569;50.548;8.778;2023-08-30T13:03:45;4.1;;;2.9;;
51491;SDS011;37569;50.548;8.778;2023-08-30T13:08:46;4.9;;;3;;
51491;SDS011;37569;50.548;8.778;2023-08-30T13:13:47;3.7;;;2.8;;
51491;SDS011;37569;50.548;8.778;2023-08-30T13:18:48;4.3;;;2.7;;
51491;SDS011;37569;50.548;8.778;2023-08-30T13:23:48;4.1;;;3;;
51491;SDS011;37569;50.548;8.778;2023-08-30T13:28:49;4.7;;;3.5;;
51491;SDS011;37569;50.548;8.778;2023-08-30T13:33:50;3.7;;;2.9;;
51491;SDS011;37569;50.548;8.778;2023-08-30T13:38:52;3.5;;;3.1;;
51491;SDS011;37569;50.548;8.778;2023-08-30T13:43:52;3.5;;;2.9;;
51491;SDS011;37569;50.548;8.778;2023-08-30T13:48:53;4.8;;;3.3;;
51491;SDS011;37569;50.548;8.778;2023-08-30T13:53:54;3.6;;;2.9;;
51491;SDS011;37569;50.548;8.778;2023-08-30T13:58:55;6.1;;;2.9;;
51491;SDS011;37569;50.548;8.778;2023-08-30T14:03:56;4.2;;;3.3;;
51491;SDS011;37569;50.548;8.778;2023-08-30T14:08:57;5.3;;;3.3;;
51491;SDS011;37569;50.548;8.778;2023-08-30T14:13:58;4.3;;;3.2;;
51491;SDS011;37569;50.548;8.778;2023-08-30T14:18:59;4.5;;;3.3;;
51491;SDS011;37569;50.548;8.778;2023-08-30T14:24:00;5.4;;;3.3;;
51491;SDS011;37569;50.548;8.778;2023-08-30T14:29:00;4.3;;;3.5;;
51491;SDS011;37569;50.548;8.778;2023-08-30T14:34:01;4.7;;;3.6;;
51491;SDS011;37569;50.548;8.778;2023-08-30T14:39:02;4.8;;;3.5;;
51491;SDS011;37569;50.548;8.778;2023-08-30T14:44:03;5.4;;;3.5;;
51491;SDS011;37569;50.548;8.778;2023-08-30T14:49:04;4.4;;;3.5;;
51491;SDS011;37569;50.548;8.778;2023-08-30T14:54:05;4.8;;;3.6;;
51491;SDS011;37569;50.548;8.778;2023-08-30T14:59:06;4.2;;;3.7;;
51491;SDS011;37569;50.548;8.778;2023-08-30T15:04:07;4.1;;;3.5;;
51491;SDS011;37569;50.548;8.778;2023-08-30T15:09:08;5.2;;;3.6;;
51491;SDS011;37569;50.548;8.778;2023-08-30T15:14:09;4;;;3.6;;
51491;SDS011;37569;50.548;8.778;2023-08-30T15:19:10;5.7;;;3.9;;
51491;SDS011;37569;50.548;8.778;2023-08-30T15:24:11;5;;;3.5;;
51491;SDS011;37569;50.548;8.778;2023-08-30T15:29:11;4.6;;;3.7;;
51491;SDS011;37569;50.548;8.778;2023-08-30T15:34:12;4.8;;;3.5;;
51491;SDS011;37569;50.548;8.778;2023-08-30T15:39:13;4.6;;;3.6;;
51491;SDS011;37569;50.548;8.778;2023-08-30T15:44:14;4.3;;;3.4;;
51491;SDS011;37569;50.548;8.778;2023-08-30T15:49:15;10;;;7.7;;
51491;SDS011;37569;50.548;8.778;2023-08-30T15:54:16;5.8;;;3.8;;
51491;SDS011;37569;50.548;8.778;2023-08-30T15:59:17;4.9;;;3.8;;
51491;SDS011;37569;50.548;8.778;2023-08-30T16:04:18;4.9;;;4;;
51491;SDS011;37569;50.548;8.778;2023-08-30T16:09:19;4.6;;;3.7;;
51491;SDS011;37569;50.548;8.778;2023-08-30T16:14:20;5;;;3.9;;
51491;SDS011;37569;50.548;8.778;2023-08-30T16:19:21;5.3;;;3.9;;
51491;SDS011;37569;50.548;8.778;2023-08-30T16:24:22;4.6;;;3.8;;
51491;SDS011;37569;50.548;8.778;2023-08-30T16:29:23;4.7;;;3.5;;
51491;SDS011;37569;50.548;8.778;2023-08-30T16:34:23;5.1;;;3.6;;
51491;SDS011;37569;50.548;8.778;2023-08-30T16:39:24;3.6;;;2.8;;
51491;SDS011;37569;50.548;8.778;2023-08-30T16:44:25;5.2;;;3.4;;
51491;SDS011;37569;50.548;8.778;2023-08-30T16:49:26;4;;;3.2;;
51491;SDS011;37569;50.548;8.778;2023-08-30T16:54:27;4.1;;;3.5;;
51491;SDS011;37569;50.548;8.778;2023-08-30T16:59:27;4.4;;;3.4;;
51491;SDS011;37569;50.548;8.778;2023-08-30T17:04:28;4;;;3.4;;
51491;SDS011;37569;50.548;8.778;2023-08-30T17:09:33;3.6;;;3.3;;
51491;SDS011;37569;50.548;8.778;2023-08-30T17:14:30;3.6;;;2.8;;
51491;SDS011;37569;50.548;8.778;2023-08-30T17:19:30;4.8;;;3.1;;
51491;SDS011;37569;50.548;8.778;2023-08-30T17:24:31;4.1;;;3;;
51491;SDS011;37569;50.548;8.778;2023-08-30T17:29:32;5;;;3;;
51491;SDS011;37569;50.548;8.778;2023-08-30T17:34:33;3.9;;;3.1;;
51491;SDS011;37569;50.548;8.778;2023-08-30T17:39:33;3.1;;;2.6;;
51491;SDS011;37569;50.548;8.778;2023-08-30T17:44:34;5;;;3.1;;
51491;SDS011;37569;50.548;8.778;2023-08-30T17:49:35;4.7;;;3.1;;
51491;SDS011;37569;50.548;8.778;2023-08-30T17:54:35;4.3;;;2.9;;
51491;SDS011;37569;50.548;8.778;2023-08-30T17:59:36;3.2;;;2.5;;
51491;SDS011;37569;50.548;8.778;2023-08-30T18:04:37;3.7;;;2.7;;
51491;SDS011;37569;50.548;8.778;2023-08-30T18:09:38;2.7;;;2.4;;
51491;SDS011;37569;50.548;8.778;2023-08-30T18:14:38;2.8;;;2.5;;
51491;SDS011;37569;50.548;8.778;2023-08-30T18:19:39;2.9;;;2.3;;
51491;SDS011;37569;50.548;8.778;2023-08-30T18:24:40;3.4;;;2.4;;
51491;SDS011;37569;50.548;8.778;2023-08-30T18:29:40;3.4;;;2.3;;
51491;SDS011;37569;50.548;8.778;2023-08-30T18:34:41;3.2;;;2.5;;
51491;SDS011;37569;50.548;8.778;2023-08-30T18:39:42;2.7;;;2.3;;
51491;SDS011;37569;50.548;8.778;2023-08-30T18:44:42;2.8;;;2;;
51491;SDS011;37569;50.548;8.778;2023-08-30T18:49:43;2.8;;;2;;
51491;SDS011;37569;50.548;8.778;2023-08-30T18:54:44;3.3;;;1.9;;
51491;SDS011;37569;50.548;8.778;2023-08-30T18:59:44;2.9;;;1.9;;
51491;SDS011;37569;50.548;8.778;2023-08-30T19:04:45;3.9;;;2.1;;
51491;SDS011;37569;50.548;8.778;2023-08-30T19:09:46;2.8;;;2.4;;
51491;SDS011;37569;50.548;8.778;2023-08-30T19:14:46;3.1;;;2.7;;
51491;SDS011;37569;50.548;8.778;2023-08-30T19:19:47;3.8;;;3.2;;
51491;SDS011;37569;50.548;8.778;2023-08-30T19:24:48;11.5;;;8;;
51491;SDS011;37569;50.548;8.778;2023-08-30T19:29:48;5;;;3.6;;
51491;SDS011;37569;50.548;8.778;2023-08-30T19:34:49;5.6;;;3.6;;
51491;SDS011;37569;50.548;8.778;2023-08-30T19:39:50;3.9;;;3.3;;
51491;SDS011;37569;50.548;8.778;2023-08-30T19:44:50;3.9;;;3.3;;
51491;SDS011;37569;50.548;8.778;2023-08-30T19:49:51;3.7;;;3.3;;
51491;SDS011;37569;50.548;8.778;2023-08-30T19:54:52;4.4;;;3.7;;
51491;SDS011;37569;50.548;8.778;2023-08-30T19:59:52;5.2;;;3.6;;
51491;SDS011;37569;50.548;8.778;2023-08-30T20:04:53;6.2;;;3.8;;
51491;SDS011;37569;50.548;8.778;2023-08-30T20:09:54;4.8;;;3.6;;
51491;SDS011;37569;50.548;8.778;2023-08-30T20:14:54;4.6;;;3.7;;
51491;SDS011;37569;50.548;8.778;2023-08-30T20:19:54;4.5;;;3.7;;
51491;SDS011;37569;50.548;8.778;2023-08-30T20:24:55;4.7;;;3.7;;
51491;SDS011;37569;50.548;8.778;2023-08-30T20:29:56;4.3;;;3.9;;
51491;SDS011;37569;50.548;8.778;2023-08-30T20:34:56;4.7;;;4.2;;
51491;SDS011;37569;50.548;8.778;2023-08-30T20:39:57;4.7;;;3.6;;
51491;SDS011;37569;50.548;8.778;2023-08-30T20:44:58;4.9;;;4.4;;
51491;SDS011;37569;50.548;8.778;2023-08-30T20:49:58;5.6;;;4;;
51491;SDS011;37569;50.548;8.778;2023-08-30T20:54:59;5.1;;;4.3;;
51491;SDS011;37569;50.548;8.778;2023-08-30T21:00:00;7;;;4.7;;
51491;SDS011;37569;50.548;8.778;2023-08-30T21:05:00;5.9;;;5;;
51491;SDS011;37569;50.548;8.778;2023-08-30T21:10:01;6.3;;;4.8;;
51491;SDS011;37569;50.548;8.778;2023-08-30T21:15:02;6.3;;;5.1;;
51491;SDS011;37569;50.548;8.778;2023-08-30T21:20:02;6.1;;;5.1;;
51491;SDS011;37569;50.548;8.778;2023-08-30T21:25:03;5.7;;;5.2;;
51491;SDS011;37569;50.548;8.778;2023-08-30T21:30:04;6.5;;;5.8;;
51491;SDS011;37569;50.548;8.778;2023-08-30T21:35:04;6;;;5.5;;
51491;SDS011;37569;50.548;8.778;2023-08-30T21:40:05;8.1;;;5.8;;
51491;SDS011;37569;50.548;8.778;2023-08-30T21:45:06;7.3;;;6.1;;
51491;SDS011;37569;50.548;8.778;2023-08-30T21:50:06;8.2;;;6.2;;
51491;SDS011;37569;50.548;8.778;2023-08-30T21:55:07;8;;;6.4;;
51491;SDS011;37569;50.548;8.778;2023-08-30T22:00:07;7.7;;;6.9;;
51491;SDS011;37569;50.548;8.778;2023-08-30T22:05:08;7.3;;;6.4;;
51491;SDS011;37569;50.548;8.778;2023-08-30T22:10:09;8.5;;;7.3;;
51491;SDS011;37569;50.548;8.778;2023-08-30T22:15:10;9.5;;;8;;
51491;SDS011;37569;50.548;8.778;2023-08-30T22:20:10;9.7;;;7.6;;
51491;SDS011;37569;50.548;8.778;2023-08-30T22:25:10;9.9;;;7.8;;
51491;SDS011;37569;50.548;8.778;2023-08-30T22:30:11;7.8;;;7;;
51491;SDS011;37569;50.548;8.778;2023-08-30T22:35:11;8.6;;;7.5;;
51491;SDS011;37569;50.548;8.778;2023-08-30T22:40:12;9.1;;;7.8;;
51491;SDS011;37569;50.548;8.778;2023-08-30T22:45:12;9.2;;;7.3;;
51491;SDS011;37569;50.548;8.778;2023-08-30T22:50:13;8.6;;;6.8;;
51491;SDS011;37569;50.548;8.778;2023-08-30T22:55:13;11.5;;;7.2;;
51491;SDS011;37569;50.548;8.778;2023-08-30T23:00:14;8.3;;;6.8;;
51491;SDS011;37569;50.548;8.778;2023-08-30T23:05:15;9.5;;;7;;
51491;SDS011;37569;50.548;8.778;2023-08-30T23:10:15;8.2;;;6.9;;
51491;SDS011;37569;50.548;8.778;2023-08-30T23:15:16;8.1;;;7;;
51491;SDS011;37569;50.548;8.778;2023-08-30T23:20:16;8.9;;;6.9;;
51491;SDS011;37569;50.548;8.778;2023-08-30T23:25:17;8.2;;;7.1;;
51491;SDS011;37569;50.548;8.778;2023-08-30T23:30:17;8.7;;;6.8;;
51491;SDS011;37569;50.548;8.778;2023-08-30T23:35:18;10.4;;;6.8;;
51491;SDS011;37569;50.548;8.778;2023-08-30T23:40:19;8.7;;;7.1;;
51491;SDS011;37569;50.548;8.778;2023-08-30T23:45:19;9.2;;;7.4;;
51491;SDS011;37569;50.548;8.778;2023-08-30T23:50:20;10.7;;;7.9;;
51491;SDS011;37569;50.548;8.778;2023-08-30T23:55:20;11.4;;;8.2;;
